createdAt,value
2022-08-17T00:00:34.532Z,43.30
2022-08-17T00:03:15.111Z,43.40
2022-08-17T00:05:47.060Z,43.30
2022-08-17T00:08:16.570Z,43.30
2022-08-17T00:10:46.123Z,43.40
2022-08-17T00:13:21.303Z,43.50
2022-08-17T00:15:48.504Z,43.70
2022-08-17T00:18:58.346Z,43.90
2022-08-17T00:21:05.761Z,44.00
2022-08-17T00:23:39.190Z,44.30
2022-08-17T00:26:12.144Z,44.70
2022-08-17T00:28:40.441Z,45.00
2022-08-17T00:31:09.324Z,45.20
2022-08-17T00:33:37.471Z,45.50
2022-08-17T00:36:06.269Z,45.50
2022-08-17T00:38:34.490Z,45.70
2022-08-17T00:41:18.146Z,45.80
2022-08-17T00:43:50.231Z,46.00
2022-08-17T00:46:32.435Z,46.00
2022-08-17T00:48:59.802Z,46.40
2022-08-17T00:51:34.929Z,46.10
2022-08-17T00:54:09.130Z,46.40
2022-08-17T00:56:49.028Z,46.50
2022-08-17T00:59:21.763Z,46.70
2022-08-17T01:01:50.607Z,46.70
2022-08-17T01:04:20.203Z,46.70
2022-08-17T01:06:49.563Z,46.70
2022-08-17T01:09:17.931Z,46.80
2022-08-17T01:11:46.449Z,46.90
2022-08-17T01:14:13.718Z,46.90
2022-08-17T01:16:40.739Z,47.00
2022-08-17T01:19:28.769Z,47.10
2022-08-17T01:22:10.773Z,47.30
2022-08-17T01:24:44.958Z,47.30
2022-08-17T01:27:14.211Z,47.20
2022-08-17T01:29:45.425Z,47.30
2022-08-17T01:32:13.199Z,47.30
2022-08-17T01:34:43.741Z,47.30
2022-08-17T01:37:19.429Z,47.30
2022-08-17T01:40:14.170Z,47.40
2022-08-17T01:42:58.622Z,47.50
2022-08-17T01:45:28.978Z,47.50
2022-08-17T01:47:56.273Z,47.60
2022-08-17T01:50:27.783Z,47.60
2022-08-17T01:53:01.868Z,47.80
2022-08-17T01:56:11.733Z,47.80
2022-08-17T01:58:41.426Z,47.70
2022-08-17T02:01:10.628Z,47.70
2022-08-17T02:03:38.327Z,47.80
2022-08-17T02:06:27.776Z,47.80
2022-08-17T02:09:01.665Z,47.90
2022-08-17T02:11:32.360Z,47.90
2022-08-17T02:14:02.896Z,47.90
2022-08-17T02:16:36.843Z,47.90
2022-08-17T02:19:08.279Z,48.00
2022-08-17T02:21:37.672Z,48.10
2022-08-17T02:24:08.604Z,48.00
2022-08-17T02:26:35.622Z,48.10
2022-08-17T02:29:04.198Z,48.10
2022-08-17T02:31:31.378Z,48.10
2022-08-17T02:34:03.892Z,48.20
2022-08-17T02:36:33.828Z,48.80
2022-08-17T02:39:02.655Z,49.00
2022-08-17T02:41:29.667Z,48.30
2022-08-17T02:43:56.590Z,48.30
2022-08-17T02:46:23.487Z,48.40
2022-08-17T02:48:50.481Z,48.50
2022-08-17T02:51:17.581Z,48.60
2022-08-17T02:53:44.522Z,48.60
2022-08-17T02:56:11.473Z,48.70
2022-08-17T02:58:38.445Z,48.70
2022-08-17T03:01:08.588Z,49.00
2022-08-17T03:03:36.821Z,49.10
2022-08-17T03:06:05.263Z,49.10
2022-08-17T03:08:32.288Z,49.30
2022-08-17T03:10:59.699Z,49.30
2022-08-17T03:13:27.603Z,49.40
2022-08-17T03:15:54.629Z,49.50
2022-08-17T03:18:25.735Z,49.50
2022-08-17T03:20:59.566Z,49.40
2022-08-17T03:23:27.803Z,49.50
2022-08-17T03:25:57.648Z,49.60
2022-08-17T03:28:25.378Z,49.90
2022-08-17T03:30:52.390Z,50.00
2022-08-17T03:33:19.989Z,50.70
2022-08-17T03:35:47.598Z,50.40
2022-08-17T03:38:17.141Z,50.60
2022-08-17T03:40:57.509Z,50.80
2022-08-17T03:43:30.693Z,51.10
2022-08-17T03:46:32.457Z,51.10
2022-08-17T03:49:21.895Z,51.30
2022-08-17T03:52:08.333Z,51.80
2022-08-17T03:54:53.865Z,51.40
2022-08-17T03:57:21.131Z,52.00
2022-08-17T03:59:48.340Z,52.20
2022-08-17T04:02:34.150Z,52.70
2022-08-17T04:05:01.214Z,53.90
2022-08-17T04:07:30.258Z,53.90
2022-08-17T04:09:58.210Z,54.50
2022-08-17T04:12:30.559Z,54.70
2022-08-17T04:14:57.664Z,54.90
2022-08-17T04:17:27.430Z,55.00
2022-08-17T04:19:55.593Z,55.60
2022-08-17T04:22:30.100Z,55.90
2022-08-17T04:25:16.327Z,56.40
2022-08-17T04:27:43.201Z,57.20
2022-08-17T04:30:10.949Z,55.50
2022-08-17T04:33:06.496Z,57.00
2022-08-17T04:35:36.549Z,57.80
2022-08-17T04:38:03.882Z,58.00
2022-08-17T04:40:49.378Z,58.10
2022-08-17T04:43:19.237Z,58.70
2022-08-17T04:45:56.899Z,59.40
2022-08-17T04:48:35.956Z,60.20
2022-08-17T04:51:06.434Z,60.60
2022-08-17T04:53:33.528Z,60.70
2022-08-17T04:56:00.500Z,61.80
2022-08-17T04:58:27.534Z,61.30
2022-08-17T05:00:54.518Z,61.40
2022-08-17T05:03:21.589Z,61.70
2022-08-17T05:05:49.818Z,61.70
2022-08-17T05:08:19.623Z,61.70
2022-08-17T05:10:47.577Z,62.10
2022-08-17T05:13:20.426Z,62.50
2022-08-17T05:15:49.031Z,63.60
2022-08-17T05:18:17.557Z,63.30
2022-08-17T05:20:44.787Z,63.30
2022-08-17T05:23:14.920Z,63.00
2022-08-17T05:25:47.431Z,63.60
2022-08-17T05:28:16.988Z,64.00
2022-08-17T05:30:49.351Z,64.00
2022-08-17T05:33:20.674Z,64.60
2022-08-17T05:35:50.407Z,65.20
2022-08-17T05:38:20.018Z,65.90
2022-08-17T05:40:47.024Z,66.70
2022-08-17T05:43:19.292Z,66.50
2022-08-17T05:45:56.415Z,67.40
2022-08-17T05:48:35.809Z,66.90
2022-08-17T05:51:25.868Z,67.40
2022-08-17T05:54:17.796Z,68.10
2022-08-17T05:56:50.864Z,68.10
2022-08-17T05:59:48.682Z,68.00
2022-08-17T06:02:33.748Z,68.50
2022-08-17T06:05:24.135Z,68.60
2022-08-17T06:07:56.933Z,68.80
2022-08-17T06:10:52.325Z,68.70
2022-08-17T06:13:49.640Z,68.60
2022-08-17T06:16:33.133Z,69.20
2022-08-17T06:46:39.190Z,70.10
2022-08-17T06:49:09.684Z,70.20
2022-08-17T06:51:43.297Z,70.00
2022-08-17T06:54:22.555Z,70.10
2022-08-17T06:57:06.486Z,71.00
2022-08-17T06:59:55.305Z,71.30
2022-08-17T07:02:55.355Z,72.10
2022-08-17T07:05:26.749Z,72.50
2022-08-17T07:08:26.435Z,72.30
2022-08-17T07:11:00.739Z,73.00
2022-08-17T07:13:51.797Z,73.30
2022-08-17T07:16:32.538Z,73.80
2022-08-17T07:19:00.238Z,73.70
2022-08-17T07:21:57.553Z,73.50
2022-08-17T07:24:37.403Z,73.00
2022-08-17T07:27:09.574Z,72.20
2022-08-17T07:30:03.773Z,72.00
2022-08-17T07:32:41.270Z,72.30
2022-08-17T07:35:44.199Z,73.00
2022-08-17T07:38:24.161Z,73.40
2022-08-17T07:40:59.313Z,72.90
2022-08-17T07:43:40.895Z,73.10
2022-08-17T07:46:52.803Z,73.10
2022-08-17T07:49:34.851Z,73.50
2022-08-17T07:52:47.795Z,72.90
2022-08-17T07:54:54.591Z,72.50
2022-08-17T07:57:29.404Z,72.90
2022-08-17T08:00:12.774Z,70.50
2022-08-17T08:02:46.211Z,68.50
2022-08-17T08:05:31.739Z,68.70
2022-08-17T08:08:42.779Z,69.60
2022-08-17T08:11:15.382Z,70.10
2022-08-17T08:13:45.570Z,69.90
2022-08-17T08:16:24.645Z,68.50
2022-08-17T08:19:00.751Z,65.40
2022-08-17T08:22:06.072Z,63.80
2022-08-17T08:24:45.050Z,62.90
2022-08-17T08:27:22.174Z,62.20
2022-08-17T08:30:05.319Z,61.20
2022-08-17T08:33:13.976Z,62.20
2022-08-17T08:36:13.452Z,62.70
2022-08-17T08:39:09.835Z,60.60
2022-08-17T08:41:52.233Z,62.00
2022-08-17T08:45:01.247Z,60.20
2022-08-17T08:47:42.385Z,60.40
2022-08-17T08:50:37.599Z,61.60
2022-08-17T08:53:03.961Z,61.60
2022-08-17T08:56:00.796Z,61.90
2022-08-17T08:58:56.026Z,63.80
2022-08-17T09:01:32.921Z,63.80
2022-08-17T09:04:25.500Z,63.20
2022-08-17T09:06:58.337Z,63.10
2022-08-17T09:09:34.253Z,63.60
2022-08-17T09:12:05.077Z,64.60
2022-08-17T09:14:49.097Z,65.40
2022-08-17T09:17:35.697Z,65.90
2022-08-17T09:20:28.013Z,66.30
2022-08-17T09:23:08.042Z,66.60
2022-08-17T09:25:58.912Z,65.60
2022-08-17T09:28:35.383Z,66.30
2022-08-17T09:31:24.089Z,66.40
2022-08-17T09:33:51.571Z,66.20
2022-08-17T09:36:41.382Z,66.30
2022-08-17T09:39:29.990Z,67.50
2022-08-17T09:42:22.725Z,67.70
2022-08-17T09:45:00.016Z,68.30
2022-08-17T09:47:46.587Z,68.90
2022-08-17T09:51:03.686Z,69.80
2022-08-17T09:53:27.172Z,70.90
2022-08-17T09:56:21.335Z,71.20
2022-08-17T09:59:06.376Z,72.40
2022-08-17T10:01:40.726Z,74.00
2022-08-17T10:04:26.027Z,74.40
2022-08-17T10:07:21.797Z,74.60
2022-08-17T10:10:14.803Z,74.60
2022-08-17T10:13:03.183Z,74.40
2022-08-17T10:15:36.969Z,73.10
2022-08-17T10:18:34.312Z,74.40
2022-08-17T10:21:25.791Z,74.50
2022-08-17T10:24:32.848Z,74.90
2022-08-17T10:27:02.997Z,75.00
2022-08-17T10:29:48.578Z,75.30
2022-08-17T10:32:56.015Z,77.60
2022-08-17T10:35:35.430Z,80.60
2022-08-17T10:38:39.193Z,83.00
2022-08-17T10:41:30.933Z,84.00
2022-08-17T10:44:38.694Z,86.00
2022-08-17T10:47:18.311Z,86.60
2022-08-17T10:49:53.627Z,87.40
2022-08-17T10:52:20.602Z,87.00
2022-08-17T10:54:58.753Z,85.50
2022-08-17T10:57:32.060Z,84.00
2022-08-17T11:00:29.403Z,82.30
2022-08-17T11:02:57.982Z,81.20
2022-08-17T11:05:43.835Z,80.40
2022-08-17T11:08:44.197Z,78.50
2022-08-17T11:11:20.158Z,77.40
2022-08-17T11:14:17.144Z,76.10
2022-08-17T11:17:13.115Z,75.00
2022-08-17T11:19:53.442Z,74.30
2022-08-17T11:22:33.475Z,73.20
2022-08-17T11:25:21.557Z,72.90
2022-08-17T11:27:53.706Z,72.70
2022-08-17T11:30:41.162Z,73.20
2022-08-17T11:33:29.382Z,73.90
2022-08-17T11:36:23.209Z,75.40
2022-08-17T11:38:59.486Z,77.60
2022-08-17T11:41:48.918Z,78.70
2022-08-17T11:44:45.392Z,78.30
2022-08-17T11:47:41.582Z,79.70
2022-08-17T11:50:30.009Z,80.70
2022-08-17T11:52:57.041Z,81.20
2022-08-17T11:55:40.521Z,84.40
2022-08-17T11:58:31.283Z,79.30
2022-08-17T12:01:03.051Z,77.50
2022-08-17T12:03:36.940Z,78.30
2022-08-17T12:06:49.015Z,74.50
2022-08-17T12:09:22.027Z,72.60
2022-08-17T12:11:55.339Z,72.20
2022-08-17T12:15:08.392Z,69.00
2022-08-17T12:17:39.794Z,67.00
2022-08-17T12:20:27.957Z,66.60
2022-08-17T12:23:03.777Z,63.80
2022-08-17T12:25:37.504Z,62.90
2022-08-17T12:28:07.825Z,62.60
2022-08-17T12:30:35.867Z,60.90
2022-08-17T12:33:03.078Z,58.60
2022-08-17T12:35:36.145Z,57.50
2022-08-17T12:38:32.681Z,55.90
2022-08-17T12:40:57.866Z,55.30
2022-08-17T12:43:30.412Z,53.40
2022-08-17T12:46:01.167Z,52.50
2022-08-17T12:48:40.431Z,52.80
2022-08-17T12:51:29.192Z,50.00
2022-08-17T12:53:57.279Z,49.30
2022-08-17T12:56:24.310Z,48.20
2022-08-17T12:58:56.491Z,47.10
2022-08-17T13:01:35.039Z,46.70
2022-08-17T13:04:02.110Z,46.40
2022-08-17T13:06:35.654Z,46.40
2022-08-17T13:09:11.678Z,45.00
2022-08-17T13:11:48.731Z,42.90
2022-08-17T13:14:18.537Z,41.60
2022-08-17T13:16:53.339Z,40.00
2022-08-17T13:19:29.812Z,38.40
2022-08-17T13:22:12.567Z,38.60
2022-08-17T13:24:54.502Z,38.90
2022-08-17T13:27:22.815Z,38.40
2022-08-17T13:29:53.818Z,38.90
2022-08-17T13:32:31.270Z,37.50
2022-08-17T13:35:14.139Z,37.30
2022-08-17T13:38:24.760Z,37.00
2022-08-17T13:40:53.423Z,37.50
2022-08-17T13:43:41.008Z,37.30
2022-08-17T13:46:23.924Z,37.60
2022-08-17T13:49:09.651Z,37.90
2022-08-17T13:51:43.288Z,38.20
2022-08-17T13:54:22.338Z,38.50
2022-08-17T13:56:57.837Z,38.70
2022-08-17T13:59:53.807Z,38.80
2022-08-17T14:02:27.930Z,38.80
2022-08-17T14:04:57.280Z,39.40
2022-08-17T14:07:37.876Z,39.60
2022-08-17T14:10:18.006Z,39.70
2022-08-17T14:12:45.793Z,40.60
2022-08-17T14:15:15.258Z,40.60
2022-08-17T14:17:42.307Z,40.60
2022-08-17T14:20:12.185Z,40.60
2022-08-17T14:22:43.819Z,41.20
2022-08-17T14:25:12.883Z,41.30
2022-08-17T14:27:47.104Z,41.30
2022-08-17T14:30:26.990Z,41.80
2022-08-17T14:32:58.257Z,42.50
2022-08-17T14:35:27.483Z,42.50
2022-08-17T14:37:54.823Z,42.90
2022-08-17T14:40:24.933Z,43.70
2022-08-17T14:42:53.700Z,44.10
2022-08-17T14:45:30.206Z,44.10
2022-08-17T14:48:04.501Z,44.30
2022-08-17T14:50:32.160Z,44.50
2022-08-17T14:53:03.894Z,44.80
2022-08-17T14:55:31.165Z,44.90
2022-08-17T14:57:58.649Z,45.10
2022-08-17T15:00:26.918Z,45.30
2022-08-17T15:02:58.449Z,45.80
2022-08-17T15:05:31.468Z,46.40
2022-08-17T15:08:02.503Z,46.50
2022-08-17T15:10:30.416Z,46.40
2022-08-17T15:12:58.282Z,46.50
2022-08-17T15:15:25.318Z,46.60
2022-08-17T15:17:52.398Z,46.70
2022-08-17T15:20:26.377Z,47.30
2022-08-17T15:22:57.394Z,47.20
2022-08-17T15:25:27.525Z,47.40
2022-08-17T15:27:56.103Z,47.70
2022-08-17T15:30:24.542Z,48.40
2022-08-17T15:32:55.198Z,48.80
2022-08-17T15:35:27.406Z,49.40
2022-08-17T15:38:10.541Z,50.10
2022-08-17T15:40:42.563Z,50.30
2022-08-17T15:43:12.937Z,50.70
2022-08-17T15:45:40.177Z,51.10
2022-08-17T15:48:07.301Z,51.40
2022-08-17T15:50:34.448Z,52.00
2022-08-17T15:53:02.483Z,52.50
2022-08-17T15:55:31.418Z,52.70
2022-08-17T15:57:59.029Z,52.70
2022-08-17T16:00:28.414Z,53.00
2022-08-17T16:03:44.411Z,53.00
2022-08-17T17:28:53.250Z,56.40
2022-08-17T17:31:25.242Z,56.50
